sensor_id;sensor_type;location;lat;lon;timestamp;pressure;altitude;pressure_sealevel;temperature
38114;BMP180;23926;53.222;6.354;2022-09-17T00:01:20;100890.00;;;14.40
38114;BMP180;23926;53.222;6.354;2022-09-17T00:03:50;100900.00;;;14.00
38114;BMP180;23926;53.222;6.354;2022-09-17T00:06:16;100902.00;;;13.90
38114;BMP180;23926;53.222;6.354;2022-09-17T00:08:42;100882.00;;;13.80
38114;BMP180;23926;53.222;6.354;2022-09-17T00:11:11;100888.00;;;13.80
38114;BMP180;23926;53.222;6.354;2022-09-17T00:13:38;100892.00;;;13.80
38114;BMP180;23926;53.222;6.354;2022-09-17T00:16:05;100897.00;;;13.70
38114;BMP180;23926;53.222;6.354;2022-09-17T00:18:30;100897.00;;;13.80
38114;BMP180;23926;53.222;6.354;2022-09-17T00:20:56;100911.00;;;13.80
38114;BMP180;23926;53.222;6.354;2022-09-17T00:23:21;100901.00;;;13.90
38114;BMP180;23926;53.222;6.354;2022-09-17T00:25:46;100901.00;;;13.90
38114;BMP180;23926;53.222;6.354;2022-09-17T00:28:13;100904.00;;;13.90
38114;BMP180;23926;53.222;6.354;2022-09-17T00:30:43;100904.00;;;13.90
38114;BMP180;23926;53.222;6.354;2022-09-17T00:33:12;100904.00;;;13.90
38114;BMP180;23926;53.222;6.354;2022-09-17T00:35:37;100905.00;;;13.80
38114;BMP180;23926;53.222;6.354;2022-09-17T00:38:03;100907.00;;;13.80
38114;BMP180;23926;53.222;6.354;2022-09-17T00:40:29;100903.00;;;13.80
38114;BMP180;23926;53.222;6.354;2022-09-17T00:42:54;100890.00;;;13.70
38114;BMP180;23926;53.222;6.354;2022-09-17T00:45:20;100907.00;;;13.60
38114;BMP180;23926;53.222;6.354;2022-09-17T00:47:59;100906.00;;;13.60
38114;BMP180;23926;53.222;6.354;2022-09-17T00:50:29;100902.00;;;13.60
38114;BMP180;23926;53.222;6.354;2022-09-17T00:53:16;100905.00;;;13.70
38114;BMP180;23926;53.222;6.354;2022-09-17T00:55:47;100900.00;;;13.90
38114;BMP180;23926;53.222;6.354;2022-09-17T00:58:16;100888.00;;;14.10
38114;BMP180;23926;53.222;6.354;2022-09-17T01:00:42;100898.00;;;14.10
38114;BMP180;23926;53.222;6.354;2022-09-17T01:03:08;100893.00;;;14.10
38114;BMP180;23926;53.222;6.354;2022-09-17T01:08:45;100903.00;;;14.20
38114;BMP180;23926;53.222;6.354;2022-09-17T01:14:30;100903.00;;;14.20
38114;BMP180;23926;53.222;6.354;2022-09-17T01:17:10;100905.00;;;14.20
38114;BMP180;23926;53.222;6.354;2022-09-17T01:20:05;100900.00;;;14.30
38114;BMP180;23926;53.222;6.354;2022-09-17T01:28:31;100899.00;;;14.20
38114;BMP180;23926;53.222;6.354;2022-09-17T01:33:52;100900.00;;;14.10
38114;BMP180;23926;53.222;6.354;2022-09-17T01:37:17;100896.00;;;14.20
38114;BMP180;23926;53.222;6.354;2022-09-17T01:47:38;100899.00;;;14.20
38114;BMP180;23926;53.222;6.354;2022-09-17T01:50:10;100910.00;;;14.30
38114;BMP180;23926;53.222;6.354;2022-09-17T01:52:38;100915.00;;;14.30
38114;BMP180;23926;53.222;6.354;2022-09-17T01:55:07;100899.00;;;14.30
38114;BMP180;23926;53.222;6.354;2022-09-17T01:57:51;100888.00;;;14.30
38114;BMP180;23926;53.222;6.354;2022-09-17T02:00:17;100911.00;;;14.30
38114;BMP180;23926;53.222;6.354;2022-09-17T02:02:58;100906.00;;;14.20
38114;BMP180;23926;53.222;6.354;2022-09-17T02:05:42;100914.00;;;14.30
38114;BMP180;23926;53.222;6.354;2022-09-17T02:08:32;100921.00;;;14.30
38114;BMP180;23926;53.222;6.354;2022-09-17T02:10:59;100915.00;;;14.50
38114;BMP180;23926;53.222;6.354;2022-09-17T02:16:23;100937.00;;;14.60
38114;BMP180;23926;53.222;6.354;2022-09-17T02:21:42;100931.00;;;13.70
38114;BMP180;23926;53.222;6.354;2022-09-17T02:24:23;100922.00;;;13.50
38114;BMP180;23926;53.222;6.354;2022-09-17T02:29:36;100934.00;;;13.40
38114;BMP180;23926;53.222;6.354;2022-09-17T02:32:03;100926.00;;;13.30
38114;BMP180;23926;53.222;6.354;2022-09-17T02:34:28;100927.00;;;13.30
38114;BMP180;23926;53.222;6.354;2022-09-17T02:36:55;100920.00;;;13.40
38114;BMP180;23926;53.222;6.354;2022-09-17T02:39:22;100909.00;;;13.30
38114;BMP180;23926;53.222;6.354;2022-09-17T02:47:45;100926.00;;;13.70
38114;BMP180;23926;53.222;6.354;2022-09-17T02:56:10;100921.00;;;13.50
38114;BMP180;23926;53.222;6.354;2022-09-17T02:58:49;100926.00;;;13.60
38114;BMP180;23926;53.222;6.354;2022-09-17T03:01:42;100935.00;;;13.70
38114;BMP180;23926;53.222;6.354;2022-09-17T03:04:11;100930.00;;;13.60
38114;BMP180;23926;53.222;6.354;2022-09-17T03:06:41;100920.00;;;13.60
38114;BMP180;23926;53.222;6.354;2022-09-17T03:09:08;100916.00;;;13.70
38114;BMP180;23926;53.222;6.354;2022-09-17T03:11:33;100900.00;;;13.90
38114;BMP180;23926;53.222;6.354;2022-09-17T03:13:59;100908.00;;;14.10
38114;BMP180;23926;53.222;6.354;2022-09-17T03:16:24;100915.00;;;14.10
38114;BMP180;23926;53.222;6.354;2022-09-17T03:18:50;100924.00;;;14.00
38114;BMP180;23926;53.222;6.354;2022-09-17T03:21:15;100942.00;;;13.30
38114;BMP180;23926;53.222;6.354;2022-09-17T03:23:40;100923.00;;;12.90
38114;BMP180;23926;53.222;6.354;2022-09-17T03:26:06;100923.00;;;12.80
38114;BMP180;23926;53.222;6.354;2022-09-17T03:28:31;100921.00;;;12.50
38114;BMP180;23926;53.222;6.354;2022-09-17T03:30:57;100935.00;;;12.60
38114;BMP180;23926;53.222;6.354;2022-09-17T03:33:22;100937.00;;;12.60
38114;BMP180;23926;53.222;6.354;2022-09-17T03:35:48;100936.00;;;12.60
38114;BMP180;23926;53.222;6.354;2022-09-17T03:38:13;100954.00;;;12.60
38114;BMP180;23926;53.222;6.354;2022-09-17T03:40:39;100936.00;;;12.70
38114;BMP180;23926;53.222;6.354;2022-09-17T03:43:05;100937.00;;;12.80
38114;BMP180;23926;53.222;6.354;2022-09-17T03:45:31;100930.00;;;12.80
38114;BMP180;23926;53.222;6.354;2022-09-17T03:47:56;100942.00;;;12.90
38114;BMP180;23926;53.222;6.354;2022-09-17T03:50:21;100936.00;;;12.90
38114;BMP180;23926;53.222;6.354;2022-09-17T03:52:47;100928.00;;;12.80
38114;BMP180;23926;53.222;6.354;2022-09-17T03:55:12;100920.00;;;12.70
38114;BMP180;23926;53.222;6.354;2022-09-17T03:57:38;100936.00;;;12.70
38114;BMP180;23926;53.222;6.354;2022-09-17T04:00:04;100925.00;;;12.70
38114;BMP180;23926;53.222;6.354;2022-09-17T04:02:29;100929.00;;;12.60
38114;BMP180;23926;53.222;6.354;2022-09-17T04:04:55;100931.00;;;12.60
38114;BMP180;23926;53.222;6.354;2022-09-17T04:07:21;100936.00;;;12.70
38114;BMP180;23926;53.222;6.354;2022-09-17T04:09:46;100928.00;;;12.60
38114;BMP180;23926;53.222;6.354;2022-09-17T04:12:11;100930.00;;;12.60
38114;BMP180;23926;53.222;6.354;2022-09-17T04:14:37;100926.00;;;12.60
38114;BMP180;23926;53.222;6.354;2022-09-17T04:17:02;100925.00;;;12.70
38114;BMP180;23926;53.222;6.354;2022-09-17T04:19:27;100925.00;;;12.50
38114;BMP180;23926;53.222;6.354;2022-09-17T04:21:53;100919.00;;;12.50
38114;BMP180;23926;53.222;6.354;2022-09-17T04:24:18;100924.00;;;12.30
38114;BMP180;23926;53.222;6.354;2022-09-17T04:26:44;100911.00;;;12.30
38114;BMP180;23926;53.222;6.354;2022-09-17T04:29:09;100931.00;;;12.40
38114;BMP180;23926;53.222;6.354;2022-09-17T04:31:35;100921.00;;;12.70
38114;BMP180;23926;53.222;6.354;2022-09-17T04:34:00;100930.00;;;12.70
38114;BMP180;23926;53.222;6.354;2022-09-17T04:36:25;100938.00;;;12.70
38114;BMP180;23926;53.222;6.354;2022-09-17T04:38:51;100924.00;;;12.80
38114;BMP180;23926;53.222;6.354;2022-09-17T04:41:16;100928.00;;;12.80
38114;BMP180;23926;53.222;6.354;2022-09-17T04:43:42;100925.00;;;13.00
38114;BMP180;23926;53.222;6.354;2022-09-17T04:46:07;100934.00;;;13.00
38114;BMP180;23926;53.222;6.354;2022-09-17T04:48:33;100924.00;;;13.10
38114;BMP180;23926;53.222;6.354;2022-09-17T04:50:58;100921.00;;;13.10
38114;BMP180;23926;53.222;6.354;2022-09-17T04:53:24;100915.00;;;13.00
38114;BMP180;23926;53.222;6.354;2022-09-17T04:55:49;100929.00;;;13.10
38114;BMP180;23926;53.222;6.354;2022-09-17T04:58:15;100938.00;;;13.40
38114;BMP180;23926;53.222;6.354;2022-09-17T05:00:40;100936.00;;;13.60
38114;BMP180;23926;53.222;6.354;2022-09-17T05:03:06;100928.00;;;13.80
38114;BMP180;23926;53.222;6.354;2022-09-17T05:05:32;100948.00;;;13.80
38114;BMP180;23926;53.222;6.354;2022-09-17T05:07:57;100945.00;;;13.70
38114;BMP180;23926;53.222;6.354;2022-09-17T05:10:23;100968.00;;;13.80
38114;BMP180;23926;53.222;6.354;2022-09-17T05:12:53;100955.00;;;13.90
38114;BMP180;23926;53.222;6.354;2022-09-17T05:15:20;100963.00;;;13.80
38114;BMP180;23926;53.222;6.354;2022-09-17T05:17:45;100965.00;;;13.80
38114;BMP180;23926;53.222;6.354;2022-09-17T05:20:11;100961.00;;;13.20
38114;BMP180;23926;53.222;6.354;2022-09-17T05:22:46;100985.00;;;12.80
38114;BMP180;23926;53.222;6.354;2022-09-17T05:25:12;100984.00;;;12.30
38114;BMP180;23926;53.222;6.354;2022-09-17T05:27:38;100981.00;;;11.90
38114;BMP180;23926;53.222;6.354;2022-09-17T05:30:04;100985.00;;;11.70
38114;BMP180;23926;53.222;6.354;2022-09-17T05:32:30;100968.00;;;11.60
38114;BMP180;23926;53.222;6.354;2022-09-17T05:34:56;100955.00;;;11.30
38114;BMP180;23926;53.222;6.354;2022-09-17T05:37:21;100959.00;;;11.10
38114;BMP180;23926;53.222;6.354;2022-09-17T05:39:47;100953.00;;;11.00
38114;BMP180;23926;53.222;6.354;2022-09-17T05:42:12;100962.00;;;11.00
38114;BMP180;23926;53.222;6.354;2022-09-17T05:44:37;100973.00;;;11.10
38114;BMP180;23926;53.222;6.354;2022-09-17T05:47:03;100974.00;;;11.20
38114;BMP180;23926;53.222;6.354;2022-09-17T05:49:28;100948.00;;;11.20
38114;BMP180;23926;53.222;6.354;2022-09-17T05:51:54;100965.00;;;11.00
38114;BMP180;23926;53.222;6.354;2022-09-17T05:54:19;100968.00;;;11.00
38114;BMP180;23926;53.222;6.354;2022-09-17T05:56:44;100968.00;;;11.10
38114;BMP180;23926;53.222;6.354;2022-09-17T05:59:10;100958.00;;;11.20
38114;BMP180;23926;53.222;6.354;2022-09-17T06:01:36;100980.00;;;11.40
38114;BMP180;23926;53.222;6.354;2022-09-17T06:04:02;101005.00;;;11.40
38114;BMP180;23926;53.222;6.354;2022-09-17T06:06:29;100989.00;;;11.60
38114;BMP180;23926;53.222;6.354;2022-09-17T06:08:57;100995.00;;;11.60
38114;BMP180;23926;53.222;6.354;2022-09-17T06:11:23;101000.00;;;11.60
38114;BMP180;23926;53.222;6.354;2022-09-17T06:13:52;100984.00;;;11.60
38114;BMP180;23926;53.222;6.354;2022-09-17T06:16:19;100984.00;;;11.50
38114;BMP180;23926;53.222;6.354;2022-09-17T06:18:44;100977.00;;;11.30
38114;BMP180;23926;53.222;6.354;2022-09-17T06:21:10;100970.00;;;11.30
38114;BMP180;23926;53.222;6.354;2022-09-17T06:23:35;100993.00;;;11.40
38114;BMP180;23926;53.222;6.354;2022-09-17T06:26:02;100969.00;;;11.40
38114;BMP180;23926;53.222;6.354;2022-09-17T06:28:28;100983.00;;;11.60
38114;BMP180;23926;53.222;6.354;2022-09-17T06:30:59;100990.00;;;11.70
38114;BMP180;23926;53.222;6.354;2022-09-17T06:33:24;100981.00;;;11.80
38114;BMP180;23926;53.222;6.354;2022-09-17T06:35:58;101003.00;;;12.10
38114;BMP180;23926;53.222;6.354;2022-09-17T06:38:29;101010.00;;;12.20
38114;BMP180;23926;53.222;6.354;2022-09-17T06:40:55;101025.00;;;12.30
38114;BMP180;23926;53.222;6.354;2022-09-17T06:43:21;101016.00;;;12.10
38114;BMP180;23926;53.222;6.354;2022-09-17T06:45:52;101002.00;;;11.70
38114;BMP180;23926;53.222;6.354;2022-09-17T06:48:17;100990.00;;;11.80
38114;BMP180;23926;53.222;6.354;2022-09-17T06:50:43;101000.00;;;12.00
38114;BMP180;23926;53.222;6.354;2022-09-17T06:53:09;100998.00;;;12.50
38114;BMP180;23926;53.222;6.354;2022-09-17T06:55:34;100998.00;;;12.70
38114;BMP180;23926;53.222;6.354;2022-09-17T06:57:59;101008.00;;;12.90
38114;BMP180;23926;53.222;6.354;2022-09-17T07:00:25;101001.00;;;13.10
38114;BMP180;23926;53.222;6.354;2022-09-17T07:02:56;100992.00;;;12.90
38114;BMP180;23926;53.222;6.354;2022-09-17T07:05:22;100998.00;;;12.90
38114;BMP180;23926;53.222;6.354;2022-09-17T07:07:47;100999.00;;;12.60
38114;BMP180;23926;53.222;6.354;2022-09-17T07:10:12;100986.00;;;12.70
38114;BMP180;23926;53.222;6.354;2022-09-17T07:12:41;100992.00;;;12.70
38114;BMP180;23926;53.222;6.354;2022-09-17T07:15:07;101004.00;;;12.80
38114;BMP180;23926;53.222;6.354;2022-09-17T07:17:35;100996.00;;;12.80
38114;BMP180;23926;53.222;6.354;2022-09-17T07:20:02;101008.00;;;13.00
38114;BMP180;23926;53.222;6.354;2022-09-17T07:22:27;101006.00;;;13.30
38114;BMP180;23926;53.222;6.354;2022-09-17T07:24:52;101005.00;;;13.50
38114;BMP180;23926;53.222;6.354;2022-09-17T07:27:18;101007.00;;;13.80
38114;BMP180;23926;53.222;6.354;2022-09-17T07:29:43;100995.00;;;13.90
38114;BMP180;23926;53.222;6.354;2022-09-17T07:32:09;101003.00;;;13.80
38114;BMP180;23926;53.222;6.354;2022-09-17T07:34:34;100995.00;;;14.00
38114;BMP180;23926;53.222;6.354;2022-09-17T07:36:59;101000.00;;;14.00
38114;BMP180;23926;53.222;6.354;2022-09-17T07:39:25;101005.00;;;14.40
38114;BMP180;23926;53.222;6.354;2022-09-17T07:41:50;101000.00;;;14.70
38114;BMP180;23926;53.222;6.354;2022-09-17T07:44:16;100994.00;;;14.80
38114;BMP180;23926;53.222;6.354;2022-09-17T07:46:41;101000.00;;;14.70
38114;BMP180;23926;53.222;6.354;2022-09-17T07:49:06;100993.00;;;15.10
38114;BMP180;23926;53.222;6.354;2022-09-17T07:51:32;100996.00;;;15.10
38114;BMP180;23926;53.222;6.354;2022-09-17T07:53:58;101008.00;;;14.50
38114;BMP180;23926;53.222;6.354;2022-09-17T07:56:25;101033.00;;;13.80
38114;BMP180;23926;53.222;6.354;2022-09-17T07:58:51;101020.00;;;13.00
38114;BMP180;23926;53.222;6.354;2022-09-17T08:01:17;101026.00;;;12.60
38114;BMP180;23926;53.222;6.354;2022-09-17T08:03:47;101013.00;;;12.10
38114;BMP180;23926;53.222;6.354;2022-09-17T08:06:14;101019.00;;;11.90
38114;BMP180;23926;53.222;6.354;2022-09-17T08:08:40;101015.00;;;11.50
38114;BMP180;23926;53.222;6.354;2022-09-17T08:11:07;101012.00;;;11.60
38114;BMP180;23926;53.222;6.354;2022-09-17T08:13:33;101014.00;;;11.70
38114;BMP180;23926;53.222;6.354;2022-09-17T08:16:04;101016.00;;;12.00
38114;BMP180;23926;53.222;6.354;2022-09-17T08:18:29;101005.00;;;12.20
38114;BMP180;23926;53.222;6.354;2022-09-17T08:20:59;101009.00;;;12.70
38114;BMP180;23926;53.222;6.354;2022-09-17T08:23:28;101009.00;;;12.90
38114;BMP180;23926;53.222;6.354;2022-09-17T08:25:56;100997.00;;;13.00
38114;BMP180;23926;53.222;6.354;2022-09-17T08:28:23;101002.00;;;13.00
38114;BMP180;23926;53.222;6.354;2022-09-17T08:30:50;101007.00;;;13.30
38114;BMP180;23926;53.222;6.354;2022-09-17T08:33:15;101008.00;;;13.40
38114;BMP180;23926;53.222;6.354;2022-09-17T08:35:42;101015.00;;;13.70
38114;BMP180;23926;53.222;6.354;2022-09-17T08:38:07;101028.00;;;14.10
38114;BMP180;23926;53.222;6.354;2022-09-17T08:40:38;101024.00;;;14.30
38114;BMP180;23926;53.222;6.354;2022-09-17T08:43:12;101052.00;;;13.70
38114;BMP180;23926;53.222;6.354;2022-09-17T08:45:39;101054.00;;;13.20
38114;BMP180;23926;53.222;6.354;2022-09-17T08:48:04;101030.00;;;12.40
38114;BMP180;23926;53.222;6.354;2022-09-17T08:50:33;101015.00;;;12.10
38114;BMP180;23926;53.222;6.354;2022-09-17T08:53:25;101028.00;;;12.10
38114;BMP180;23926;53.222;6.354;2022-09-17T08:56:01;101014.00;;;12.20
38114;BMP180;23926;53.222;6.354;2022-09-17T08:58:50;101018.00;;;12.50
38114;BMP180;23926;53.222;6.354;2022-09-17T09:01:39;101019.00;;;12.80
38114;BMP180;23926;53.222;6.354;2022-09-17T09:04:31;101026.00;;;13.50
38114;BMP180;23926;53.222;6.354;2022-09-17T09:07:04;101043.00;;;13.80
38114;BMP180;23926;53.222;6.354;2022-09-17T09:09:36;101021.00;;;13.70
38114;BMP180;23926;53.222;6.354;2022-09-17T09:12:24;101023.00;;;13.70
38114;BMP180;23926;53.222;6.354;2022-09-17T09:14:57;101015.00;;;13.80
38114;BMP180;23926;53.222;6.354;2022-09-17T09:17:28;101016.00;;;14.00
38114;BMP180;23926;53.222;6.354;2022-09-17T09:19:56;101025.00;;;14.60
38114;BMP180;23926;53.222;6.354;2022-09-17T09:28:25;101050.00;;;13.80
38114;BMP180;23926;53.222;6.354;2022-09-17T09:31:23;101041.00;;;13.40
38114;BMP180;23926;53.222;6.354;2022-09-17T09:33:52;101040.00;;;13.30
38114;BMP180;23926;53.222;6.354;2022-09-17T09:36:18;101040.00;;;13.10
38114;BMP180;23926;53.222;6.354;2022-09-17T09:39:10;101028.00;;;13.30
38114;BMP180;23926;53.222;6.354;2022-09-17T09:42:02;101043.00;;;13.60
38114;BMP180;23926;53.222;6.354;2022-09-17T09:44:28;101029.00;;;14.10
38114;BMP180;23926;53.222;6.354;2022-09-17T09:50:24;101026.00;;;15.10
38114;BMP180;23926;53.222;6.354;2022-09-17T09:53:24;101019.00;;;14.80
38114;BMP180;23926;53.222;6.354;2022-09-17T09:56:23;101020.00;;;14.40
38114;BMP180;23926;53.222;6.354;2022-09-17T09:58:52;101004.00;;;14.20
38114;BMP180;23926;53.222;6.354;2022-09-17T10:01:19;101017.00;;;14.30
38114;BMP180;23926;53.222;6.354;2022-09-17T10:03:45;101018.00;;;14.30
38114;BMP180;23926;53.222;6.354;2022-09-17T10:06:15;101013.00;;;14.60
38114;BMP180;23926;53.222;6.354;2022-09-17T10:11:24;101006.00;;;15.00
38114;BMP180;23926;53.222;6.354;2022-09-17T10:13:49;101005.00;;;15.60
38114;BMP180;23926;53.222;6.354;2022-09-17T10:16:25;101042.00;;;15.60
38114;BMP180;23926;53.222;6.354;2022-09-17T10:21:38;101034.00;;;14.40
38114;BMP180;23926;53.222;6.354;2022-09-17T10:24:24;101017.00;;;13.80
38114;BMP180;23926;53.222;6.354;2022-09-17T10:26:50;101031.00;;;13.30
38114;BMP180;23926;53.222;6.354;2022-09-17T10:29:18;101037.00;;;13.00
38114;BMP180;23926;53.222;6.354;2022-09-17T10:31:53;101013.00;;;12.80
38114;BMP180;23926;53.222;6.354;2022-09-17T10:34:24;101038.00;;;13.00
38114;BMP180;23926;53.222;6.354;2022-09-17T10:36:51;101042.00;;;13.10
38114;BMP180;23926;53.222;6.354;2022-09-17T10:41:56;101012.00;;;13.10
38114;BMP180;23926;53.222;6.354;2022-09-17T10:44:24;101003.00;;;12.80
38114;BMP180;23926;53.222;6.354;2022-09-17T10:46:50;101017.00;;;12.80
38114;BMP180;23926;53.222;6.354;2022-09-17T10:51:51;101027.00;;;13.30
38114;BMP180;23926;53.222;6.354;2022-09-17T10:54:39;101018.00;;;13.30
38114;BMP180;23926;53.222;6.354;2022-09-17T10:57:09;101013.00;;;13.70
38114;BMP180;23926;53.222;6.354;2022-09-17T11:08:07;101039.00;;;15.10
38114;BMP180;23926;53.222;6.354;2022-09-17T11:10:56;101021.00;;;14.90
38114;BMP180;23926;53.222;6.354;2022-09-17T11:17:34;101020.00;;;14.30
38114;BMP180;23926;53.222;6.354;2022-09-17T11:36:20;101016.00;;;13.70
38114;BMP180;23926;53.222;6.354;2022-09-17T11:38:49;101026.00;;;14.10
38114;BMP180;23926;53.222;6.354;2022-09-17T11:41:24;101019.00;;;14.70
38114;BMP180;23926;53.222;6.354;2022-09-17T11:44:22;101003.00;;;14.90
38114;BMP180;23926;53.222;6.354;2022-09-17T11:46:54;101018.00;;;14.80
38114;BMP180;23926;53.222;6.354;2022-09-17T11:52:28;101023.00;;;14.70
38114;BMP180;23926;53.222;6.354;2022-09-17T11:55:26;101024.00;;;14.80
38114;BMP180;23926;53.222;6.354;2022-09-17T11:57:59;101019.00;;;15.00
38114;BMP180;23926;53.222;6.354;2022-09-17T12:00:28;101032.00;;;15.40
38114;BMP180;23926;53.222;6.354;2022-09-17T12:03:01;101007.00;;;15.70
38114;BMP180;23926;53.222;6.354;2022-09-17T12:05:35;101022.00;;;15.80
38114;BMP180;23926;53.222;6.354;2022-09-17T12:08:15;101017.00;;;16.00
38114;BMP180;23926;53.222;6.354;2022-09-17T12:11:07;101012.00;;;16.00
38114;BMP180;23926;53.222;6.354;2022-09-17T12:13:47;100998.00;;;15.80
38114;BMP180;23926;53.222;6.354;2022-09-17T12:16:17;101005.00;;;15.70
38114;BMP180;23926;53.222;6.354;2022-09-17T12:21:40;101018.00;;;15.90
38114;BMP180;23926;53.222;6.354;2022-09-17T12:24:13;101014.00;;;15.80
38114;BMP180;23926;53.222;6.354;2022-09-17T12:30:07;101025.00;;;16.10
38114;BMP180;23926;53.222;6.354;2022-09-17T12:40:52;101016.00;;;16.50
38114;BMP180;23926;53.222;6.354;2022-09-17T12:48:42;101018.00;;;17.00
38114;BMP180;23926;53.222;6.354;2022-09-17T12:59:16;101028.00;;;16.00
38114;BMP180;23926;53.222;6.354;2022-09-17T13:10:35;101046.00;;;16.50
38114;BMP180;23926;53.222;6.354;2022-09-17T13:26:08;101031.00;;;16.70
38114;BMP180;23926;53.222;6.354;2022-09-17T13:28:36;101034.00;;;16.90
38114;BMP180;23926;53.222;6.354;2022-09-17T13:31:02;101040.00;;;16.80
38114;BMP180;23926;53.222;6.354;2022-09-17T13:33:57;101056.00;;;16.60
38114;BMP180;23926;53.222;6.354;2022-09-17T13:36:42;101039.00;;;16.70
38114;BMP180;23926;53.222;6.354;2022-09-17T13:44:38;101042.00;;;17.10
38114;BMP180;23926;53.222;6.354;2022-09-17T13:47:32;101062.00;;;17.10
38114;BMP180;23926;53.222;6.354;2022-09-17T13:50:05;101045.00;;;17.10
38114;BMP180;23926;53.222;6.354;2022-09-17T13:52:41;101047.00;;;17.20
38114;BMP180;23926;53.222;6.354;2022-09-17T13:55:37;101066.00;;;17.00
38114;BMP180;23926;53.222;6.354;2022-09-17T14:05:53;101058.00;;;16.40
38114;BMP180;23926;53.222;6.354;2022-09-17T14:13:49;101093.00;;;15.10
38114;BMP180;23926;53.222;6.354;2022-09-17T14:27:02;101112.00;;;13.40
38114;BMP180;23926;53.222;6.354;2022-09-17T14:32:42;101106.00;;;13.40
38114;BMP180;23926;53.222;6.354;2022-09-17T14:37:50;101082.00;;;14.10
38114;BMP180;23926;53.222;6.354;2022-09-17T14:40:18;101088.00;;;14.40
38114;BMP180;23926;53.222;6.354;2022-09-17T14:42:45;101087.00;;;14.60
38114;BMP180;23926;53.222;6.354;2022-09-17T14:45:20;101096.00;;;15.00
38114;BMP180;23926;53.222;6.354;2022-09-17T14:47:46;101086.00;;;15.10
38114;BMP180;23926;53.222;6.354;2022-09-17T14:50:25;101088.00;;;15.30
38114;BMP180;23926;53.222;6.354;2022-09-17T14:52:52;101079.00;;;15.30
38114;BMP180;23926;53.222;6.354;2022-09-17T14:57:45;101087.00;;;15.60
38114;BMP180;23926;53.222;6.354;2022-09-17T15:00:19;101106.00;;;15.60
38114;BMP180;23926;53.222;6.354;2022-09-17T15:02:50;101093.00;;;15.30
38114;BMP180;23926;53.222;6.354;2022-09-17T15:05:17;101103.00;;;15.00
38114;BMP180;23926;53.222;6.354;2022-09-17T15:07:44;101106.00;;;14.10
38114;BMP180;23926;53.222;6.354;2022-09-17T15:10:19;101083.00;;;13.50
38114;BMP180;23926;53.222;6.354;2022-09-17T15:12:45;101081.00;;;13.40
38114;BMP180;23926;53.222;6.354;2022-09-17T15:15:32;101066.00;;;13.40
38114;BMP180;23926;53.222;6.354;2022-09-17T15:17:57;101081.00;;;13.70
38114;BMP180;23926;53.222;6.354;2022-09-17T15:20:27;101078.00;;;14.00
38114;BMP180;23926;53.222;6.354;2022-09-17T15:23:19;101068.00;;;14.20
38114;BMP180;23926;53.222;6.354;2022-09-17T15:25:47;101072.00;;;14.20
38114;BMP180;23926;53.222;6.354;2022-09-17T15:28:30;101075.00;;;14.70
38114;BMP180;23926;53.222;6.354;2022-09-17T15:30:58;101069.00;;;14.80
38114;BMP180;23926;53.222;6.354;2022-09-17T15:33:24;101073.00;;;15.40
38114;BMP180;23926;53.222;6.354;2022-09-17T15:36:17;101078.00;;;15.60
38114;BMP180;23926;53.222;6.354;2022-09-17T15:38:44;101072.00;;;15.90
38114;BMP180;23926;53.222;6.354;2022-09-17T15:43:46;101071.00;;;16.20
38114;BMP180;23926;53.222;6.354;2022-09-17T15:46:28;101095.00;;;15.20
38114;BMP180;23926;53.222;6.354;2022-09-17T15:48:56;101089.00;;;14.50
38114;BMP180;23926;53.222;6.354;2022-09-17T15:51:25;101087.00;;;14.60
38114;BMP180;23926;53.222;6.354;2022-09-17T15:53:53;101080.00;;;14.60
38114;BMP180;23926;53.222;6.354;2022-09-17T15:56:25;101087.00;;;14.70
38114;BMP180;23926;53.222;6.354;2022-09-17T15:58:54;101079.00;;;14.80
38114;BMP180;23926;53.222;6.354;2022-09-17T16:04:19;101074.00;;;14.80
38114;BMP180;23926;53.222;6.354;2022-09-17T16:09:39;101066.00;;;14.80
38114;BMP180;23926;53.222;6.354;2022-09-17T16:12:05;101081.00;;;14.70
38114;BMP180;23926;53.222;6.354;2022-09-17T16:14:30;101060.00;;;14.90
38114;BMP180;23926;53.222;6.354;2022-09-17T16:16:55;101076.00;;;15.20
38114;BMP180;23926;53.222;6.354;2022-09-17T16:19:22;101077.00;;;15.40
38114;BMP180;23926;53.222;6.354;2022-09-17T16:21:48;101064.00;;;15.50
38114;BMP180;23926;53.222;6.354;2022-09-17T16:24:13;101077.00;;;15.40
38114;BMP180;23926;53.222;6.354;2022-09-17T16:26:39;101074.00;;;15.40
38114;BMP180;23926;53.222;6.354;2022-09-17T16:29:09;101078.00;;;15.60
38114;BMP180;23926;53.222;6.354;2022-09-17T16:31:36;101085.00;;;15.70
38114;BMP180;23926;53.222;6.354;2022-09-17T16:34:02;101087.00;;;15.70
38114;BMP180;23926;53.222;6.354;2022-09-17T16:36:27;101085.00;;;15.60
38114;BMP180;23926;53.222;6.354;2022-09-17T16:38:55;101090.00;;;15.60
38114;BMP180;23926;53.222;6.354;2022-09-17T16:41:21;101079.00;;;15.50
38114;BMP180;23926;53.222;6.354;2022-09-17T16:43:46;101094.00;;;15.50
38114;BMP180;23926;53.222;6.354;2022-09-17T16:46:11;101092.00;;;15.60
38114;BMP180;23926;53.222;6.354;2022-09-17T16:48:37;101093.00;;;15.60
38114;BMP180;23926;53.222;6.354;2022-09-17T16:51:07;101104.00;;;15.60
38114;BMP180;23926;53.222;6.354;2022-09-17T16:53:33;101121.00;;;15.50
38114;BMP180;23926;53.222;6.354;2022-09-17T16:55:59;101111.00;;;14.40
38114;BMP180;23926;53.222;6.354;2022-09-17T16:58:24;101096.00;;;13.70
38114;BMP180;23926;53.222;6.354;2022-09-17T17:00:50;101091.00;;;13.70
38114;BMP180;23926;53.222;6.354;2022-09-17T17:03:15;101084.00;;;13.70
38114;BMP180;23926;53.222;6.354;2022-09-17T17:05:40;101087.00;;;13.80
38114;BMP180;23926;53.222;6.354;2022-09-17T17:08:08;101101.00;;;14.00
38114;BMP180;23926;53.222;6.354;2022-09-17T17:10:34;101095.00;;;14.00
38114;BMP180;23926;53.222;6.354;2022-09-17T17:13:00;101086.00;;;14.00
38114;BMP180;23926;53.222;6.354;2022-09-17T17:15:26;101090.00;;;14.00
38114;BMP180;23926;53.222;6.354;2022-09-17T17:17:51;101091.00;;;14.00
38114;BMP180;23926;53.222;6.354;2022-09-17T17:20:17;101101.00;;;14.10
38114;BMP180;23926;53.222;6.354;2022-09-17T17:22:43;101106.00;;;14.20